Gafsa, Tunisia
Current Conditions -  °F | °C
As of 7:00 PM on Monday 20 Oct 2014 (Local Time) from DTTF Reporting Station
Clear Clear  
Wind Chill: 77°   Ceiling: Unl
Heat Index: 78°   Visibility: 6mi
Dew Point: 54°   Wind: 6mph
Humidity: 44%   Direction: 240°WSW
Pressure: 30.09"   Gusts: NA
Location:  34.42°N, 8.79°E
Report Text: DTTF 201800Z 24005KT CAVOK 25/12 Q1019 NOSIG
Loading
Personal Weather Stations






























Interactive Weather Map
Tropical Storm Tracking
New forecast layout! Learn more

10-Day Weather Forecast

Advertisements
Track Severe Weather on mobile